createdAt,value
2023-04-09T00:00:36.863Z,40.60
2023-04-09T00:03:25.207Z,32.20
2023-04-09T00:05:55.264Z,36.30
2023-04-09T00:08:26.498Z,52.60
2023-04-09T00:10:55.506Z,32.40
2023-04-09T00:13:31.963Z,47.10
2023-04-09T00:16:07.980Z,33.80
2023-04-09T00:18:36.429Z,30.10
2023-04-09T00:21:04.789Z,109.70
2023-04-09T00:23:32.984Z,44.80
2023-04-09T00:26:01.568Z,97.90
2023-04-09T00:28:29.713Z,53.70
2023-04-09T00:30:57.897Z,52.00
2023-04-09T00:33:26.585Z,89.50
2023-04-09T00:35:54.871Z,30.00
2023-04-09T00:38:23.422Z,29.80
2023-04-09T00:40:52.044Z,33.50
2023-04-09T00:43:20.676Z,49.50
2023-04-09T00:45:49.330Z,32.00
2023-04-09T00:48:17.873Z,33.40
2023-04-09T00:50:46.384Z,54.80
2023-04-09T00:53:14.885Z,51.80
2023-04-09T00:55:43.264Z,56.30
2023-04-09T00:58:11.597Z,55.40
2023-04-09T01:00:39.723Z,68.20
2023-04-09T01:03:08.644Z,63.80
2023-04-09T01:05:53.875Z,48.80
2023-04-09T01:08:51.789Z,55.10
2023-04-09T01:11:53.885Z,30.00
2023-04-09T01:14:30.858Z,53.90
2023-04-09T01:17:06.239Z,37.40
2023-04-09T01:20:00.758Z,31.40
2023-04-09T01:22:34.759Z,40.30
2023-04-09T01:25:07.464Z,26.30
2023-04-09T01:28:08.693Z,32.10
2023-04-09T01:30:37.111Z,34.20
2023-04-09T01:33:06.381Z,27.10
2023-04-09T01:35:34.485Z,28.80
2023-04-09T01:38:04.412Z,35.20
2023-04-09T01:40:32.764Z,27.90
2023-04-09T01:43:02.802Z,35.30
2023-04-09T01:45:30.984Z,28.50
2023-04-09T01:47:59.815Z,28.40
2023-04-09T01:50:28.386Z,27.30
2023-04-09T01:52:56.945Z,35.30
2023-04-09T01:55:25.376Z,46.10
2023-04-09T01:57:53.640Z,41.90
2023-04-09T02:00:22.297Z,27.60
2023-04-09T02:03:01.985Z,38.00
2023-04-09T02:05:34.818Z,33.10
2023-04-09T02:08:06.250Z,39.80
2023-04-09T02:10:36.088Z,64.40
2023-04-09T02:13:06.350Z,36.90
2023-04-09T02:15:38.690Z,47.30
2023-04-09T02:18:31.151Z,62.80
2023-04-09T02:21:00.160Z,43.20
2023-04-09T02:23:28.431Z,39.30
2023-04-09T02:25:56.613Z,43.10
2023-04-09T02:28:24.838Z,35.50
2023-04-09T02:30:53.199Z,28.10
2023-04-09T02:33:21.446Z,41.50
2023-04-09T02:35:50.369Z,31.70
2023-04-09T02:38:19.211Z,32.70
2023-04-09T02:40:47.397Z,34.50
2023-04-09T02:43:15.551Z,33.00
2023-04-09T02:45:43.645Z,40.40
2023-04-09T02:48:11.825Z,37.80
2023-04-09T02:50:39.955Z,30.60
2023-04-09T02:53:08.052Z,34.30
2023-04-09T02:55:36.218Z,35.00
2023-04-09T02:58:04.301Z,32.00
2023-04-09T03:00:32.474Z,42.40
2023-04-09T03:03:00.715Z,41.00
2023-04-09T03:05:29.163Z,34.50
2023-04-09T03:07:57.250Z,42.70
2023-04-09T03:10:25.352Z,44.50
2023-04-09T03:12:53.625Z,43.10
2023-04-09T03:15:21.728Z,73.10
2023-04-09T03:17:52.676Z,35.60
2023-04-09T03:20:22.398Z,52.30
2023-04-09T03:22:50.706Z,42.20
2023-04-09T03:25:28.695Z,42.10
2023-04-09T03:27:56.947Z,45.90
2023-04-09T03:30:32.818Z,43.80
2023-04-09T03:33:02.470Z,41.10
2023-04-09T03:35:31.968Z,37.60
2023-04-09T03:38:01.479Z,50.70
2023-04-09T03:40:29.965Z,40.00
2023-04-09T03:42:58.110Z,46.60
2023-04-09T03:45:27.085Z,47.30
2023-04-09T03:47:57.827Z,44.80
2023-04-09T03:50:26.625Z,45.20
2023-04-09T03:52:56.473Z,54.30
2023-04-09T03:55:24.649Z,37.80
2023-04-09T03:57:52.866Z,47.30
2023-04-09T04:00:22.578Z,50.80
2023-04-09T04:03:05.905Z,38.60
2023-04-09T04:06:03.079Z,58.80
2023-04-09T04:08:37.108Z,43.90
2023-04-09T04:11:05.834Z,44.80
2023-04-09T04:13:34.130Z,45.80
2023-04-09T04:16:02.557Z,52.10
2023-04-09T04:18:30.638Z,51.70
2023-04-09T04:20:58.722Z,44.70
2023-04-09T04:23:26.849Z,45.40
2023-04-09T04:28:34.824Z,48.70
2023-04-09T04:31:03.212Z,46.90
2023-04-09T04:33:31.849Z,47.40
2023-04-09T04:36:08.446Z,52.20
2023-04-09T04:38:41.459Z,51.10
2023-04-09T04:41:14.404Z,49.90
2023-04-09T04:43:47.468Z,48.40
2023-04-09T04:46:20.875Z,51.90
2023-04-09T04:48:49.578Z,55.70
2023-04-09T04:51:17.959Z,62.80
2023-04-09T04:53:55.702Z,58.20
2023-04-09T04:56:23.993Z,57.90
2023-04-09T04:59:01.559Z,54.20
2023-04-09T05:01:32.804Z,63.80
2023-04-09T05:04:04.319Z,59.50
2023-04-09T05:06:34.781Z,65.40
2023-04-09T05:09:06.131Z,58.60
2023-04-09T05:11:46.396Z,64.70
2023-04-09T05:14:17.584Z,60.80
2023-04-09T05:16:45.867Z,67.20
2023-04-09T05:19:14.728Z,55.10
2023-04-09T05:21:46.243Z,67.60
2023-04-09T05:24:16.725Z,66.90
2023-04-09T05:26:44.855Z,61.30
2023-04-09T05:29:13.330Z,57.60
2023-04-09T05:31:43.193Z,55.30
2023-04-09T05:34:22.953Z,58.20
2023-04-09T05:36:54.192Z,67.50
2023-04-09T05:39:23.808Z,58.00
2023-04-09T05:41:52.927Z,55.50
2023-04-09T05:44:39.566Z,59.30
2023-04-09T05:47:12.238Z,51.70
2023-04-09T05:49:47.279Z,48.60
2023-04-09T05:52:19.950Z,53.50
2023-04-09T05:54:48.316Z,51.00
2023-04-09T05:57:19.499Z,54.00
2023-04-09T05:59:53.156Z,59.30
2023-04-09T06:02:22.912Z,43.00
2023-04-09T06:04:51.486Z,51.20
2023-04-09T06:07:19.673Z,49.90
2023-04-09T06:09:47.899Z,52.20
2023-04-09T06:12:16.002Z,57.60
2023-04-09T06:14:44.124Z,49.80
2023-04-09T06:17:12.496Z,44.80
2023-04-09T06:19:40.630Z,43.30
2023-04-09T06:22:11.677Z,50.20
2023-04-09T06:24:39.773Z,51.50
2023-04-09T06:27:08.145Z,52.50
2023-04-09T06:29:36.210Z,50.30
2023-04-09T06:32:04.867Z,53.10
2023-04-09T06:34:32.967Z,49.30
2023-04-09T06:37:01.406Z,48.80
2023-04-09T06:39:29.592Z,49.90
2023-04-09T06:41:57.722Z,58.20
2023-04-09T06:44:52.148Z,54.70
2023-04-09T06:47:20.404Z,70.90
2023-04-09T06:49:48.496Z,49.40
2023-04-09T06:52:16.667Z,51.90
2023-04-09T06:54:46.289Z,52.20
2023-04-09T06:57:14.471Z,53.70
2023-04-09T06:59:42.677Z,52.30
2023-04-09T07:02:10.997Z,58.40
2023-04-09T07:04:39.701Z,49.90
2023-04-09T07:07:07.835Z,54.10
2023-04-09T07:09:35.983Z,49.60
2023-04-09T07:12:04.040Z,50.00
2023-04-09T07:14:32.124Z,46.80
2023-04-09T07:17:00.267Z,37.50
2023-04-09T07:19:28.392Z,43.60
2023-04-09T07:21:56.602Z,47.30
2023-04-09T07:24:24.760Z,42.90
2023-04-09T07:26:53.455Z,39.90
2023-04-09T07:29:22.480Z,39.30
2023-04-09T07:31:50.724Z,40.50
2023-04-09T07:34:18.916Z,40.60
2023-04-09T07:36:47.095Z,34.00
2023-04-09T07:39:15.155Z,36.20
2023-04-09T07:41:43.408Z,30.60
2023-04-09T07:44:11.519Z,27.20
2023-04-09T07:46:40.039Z,26.10
2023-04-09T07:49:08.237Z,22.70
2023-04-09T07:51:36.505Z,21.80
2023-04-09T07:54:04.588Z,16.00
2023-04-09T07:56:32.718Z,16.90
2023-04-09T07:59:00.868Z,14.90
2023-04-09T08:01:29.011Z,17.70
2023-04-09T08:03:57.425Z,17.40
2023-04-09T08:06:27.128Z,16.30
2023-04-09T08:08:55.442Z,12.00
2023-04-09T08:11:25.459Z,16.00
2023-04-09T08:13:54.641Z,17.10
2023-04-09T08:16:24.587Z,13.00
2023-04-09T08:18:53.691Z,13.70
2023-04-09T08:21:21.894Z,17.50
2023-04-09T08:23:50.167Z,17.20
2023-04-09T08:26:18.334Z,15.80
2023-04-09T08:28:46.605Z,15.30
2023-04-09T08:31:15.791Z,12.10
2023-04-09T08:33:43.901Z,12.10
2023-04-09T08:36:12.165Z,12.00
2023-04-09T08:38:40.825Z,15.00
2023-04-09T08:41:18.164Z,16.60
2023-04-09T08:46:22.186Z,12.90
2023-04-09T08:48:52.000Z,14.90
2023-04-09T08:51:22.642Z,14.20
2023-04-09T08:54:04.051Z,13.20
2023-04-09T08:56:33.091Z,14.30
2023-04-09T08:59:01.253Z,16.00
2023-04-09T09:01:31.473Z,15.10
2023-04-09T09:04:04.863Z,14.20
2023-04-09T09:06:43.101Z,12.00
2023-04-09T09:09:16.393Z,12.40
2023-04-09T09:11:50.365Z,12.10
2023-04-09T09:14:19.779Z,12.60
2023-04-09T09:16:57.921Z,10.30
2023-04-09T09:19:26.723Z,10.90
2023-04-09T09:21:57.658Z,14.90
2023-04-09T09:24:25.896Z,11.70
2023-04-09T09:27:00.190Z,13.80
2023-04-09T09:29:28.968Z,14.30
2023-04-09T09:31:57.237Z,13.00
2023-04-09T09:34:26.186Z,11.20
2023-04-09T09:36:54.434Z,10.80
2023-04-09T09:39:22.881Z,9.70
2023-04-09T09:42:08.214Z,11.70
2023-04-09T09:44:36.482Z,8.20
2023-04-09T09:47:05.008Z,10.00
2023-04-09T09:49:33.184Z,8.00
2023-04-09T09:52:06.133Z,12.10
2023-04-09T09:54:42.354Z,12.30
2023-04-09T09:57:13.791Z,10.80
2023-04-09T09:59:47.972Z,10.60
2023-04-09T10:02:20.731Z,10.70
2023-04-09T10:04:53.075Z,10.80
2023-04-09T10:07:22.576Z,10.00
2023-04-09T10:09:53.164Z,8.60
2023-04-09T10:12:25.385Z,8.70
2023-04-09T10:14:56.359Z,10.00
2023-04-09T10:17:24.583Z,14.60
2023-04-09T10:20:05.096Z,10.30
2023-04-09T10:22:34.842Z,10.10
2023-04-09T10:25:04.758Z,7.50
2023-04-09T10:27:32.872Z,11.30
2023-04-09T10:30:01.895Z,9.20
2023-04-09T10:32:36.337Z,8.00
2023-04-09T10:35:04.960Z,6.90
2023-04-09T10:37:35.747Z,9.40
2023-04-09T10:40:04.799Z,7.50
2023-04-09T10:42:40.413Z,9.10
2023-04-09T10:45:09.685Z,11.50
2023-04-09T10:47:40.268Z,8.10
2023-04-09T10:50:21.746Z,7.10
2023-04-09T10:52:54.137Z,8.50
2023-04-09T10:55:38.776Z,8.90
2023-04-09T10:58:11.280Z,6.90
2023-04-09T11:00:43.163Z,12.80
2023-04-09T11:03:31.651Z,8.70
2023-04-09T11:06:06.186Z,7.70
2023-04-09T11:08:35.224Z,9.30
2023-04-09T11:11:03.744Z,11.40
2023-04-09T11:13:32.979Z,8.40
2023-04-09T11:16:04.236Z,9.80
2023-04-09T11:18:34.918Z,8.50
2023-04-09T11:21:06.919Z,12.00
2023-04-09T11:23:35.075Z,9.10
2023-04-09T11:26:03.323Z,9.70
2023-04-09T11:28:31.728Z,10.90
2023-04-09T11:30:59.834Z,9.60
2023-04-09T11:33:34.655Z,9.30
2023-04-09T11:36:06.574Z,9.20
2023-04-09T11:38:37.214Z,9.20
2023-04-09T11:41:05.578Z,10.70
2023-04-09T11:43:36.587Z,9.30
2023-04-09T11:46:06.058Z,7.30
2023-04-09T11:48:34.639Z,10.40
2023-04-09T11:51:04.103Z,7.20
2023-04-09T11:53:32.507Z,11.80
2023-04-09T11:56:00.861Z,9.00
2023-04-09T11:58:29.483Z,10.50
2023-04-09T12:01:00.654Z,10.40
2023-04-09T12:03:36.158Z,8.20
2023-04-09T12:06:06.306Z,8.70
2023-04-09T12:08:36.438Z,8.10
2023-04-09T12:11:11.864Z,9.90
2023-04-09T12:13:44.639Z,7.40
2023-04-09T12:16:13.557Z,8.30
2023-04-09T12:18:42.016Z,8.00
2023-04-09T12:21:11.395Z,7.40
2023-04-09T12:23:41.017Z,9.80
2023-04-09T12:26:09.069Z,7.40
2023-04-09T12:28:37.198Z,5.90
2023-04-09T12:31:06.121Z,7.40
2023-04-09T12:33:34.223Z,8.60
2023-04-09T12:36:03.050Z,7.70
2023-04-09T12:38:31.249Z,6.50
2023-04-09T12:40:59.492Z,6.60
2023-04-09T12:43:27.662Z,9.30
2023-04-09T12:45:55.975Z,7.30
2023-04-09T12:48:24.202Z,6.40
2023-04-09T12:50:52.315Z,9.40
2023-04-09T12:53:20.620Z,6.80
2023-04-09T12:55:48.826Z,11.40
2023-04-09T12:58:16.985Z,8.30
2023-04-09T13:00:45.169Z,7.90
2023-04-09T13:03:16.853Z,6.20
2023-04-09T13:05:45.245Z,4.90
2023-04-09T13:08:13.376Z,7.90
2023-04-09T13:10:41.492Z,8.60
2023-04-09T13:13:12.387Z,6.90
2023-04-09T13:15:44.876Z,6.40
2023-04-09T13:18:13.829Z,7.30
2023-04-09T13:20:41.995Z,8.60
2023-04-09T13:23:10.125Z,8.20
2023-04-09T13:25:38.362Z,6.90
2023-04-09T13:28:06.594Z,7.00
2023-04-09T13:30:34.736Z,6.60
2023-04-09T13:33:03.116Z,6.40
2023-04-09T13:35:31.349Z,7.90
2023-04-09T13:37:59.627Z,9.90
2023-04-09T13:40:27.904Z,6.80
2023-04-09T13:42:56.229Z,7.50
2023-04-09T13:45:24.375Z,7.50
2023-04-09T13:47:52.569Z,7.90
2023-04-09T13:50:21.768Z,6.70
2023-04-09T13:52:49.846Z,12.80
2023-04-09T13:55:18.012Z,8.20
2023-04-09T13:57:46.251Z,8.10
2023-04-09T14:00:14.600Z,10.90
2023-04-09T14:02:42.827Z,9.80
2023-04-09T14:05:10.984Z,9.30
2023-04-09T14:07:39.186Z,8.00
2023-04-09T14:10:07.931Z,7.70
2023-04-09T14:12:36.098Z,6.90
2023-04-09T14:15:04.709Z,8.80
2023-04-09T14:17:32.784Z,8.30
2023-04-09T14:20:03.770Z,6.90
2023-04-09T14:22:31.984Z,8.40
2023-04-09T14:25:00.212Z,8.30
2023-04-09T14:27:28.385Z,7.70
2023-04-09T14:29:56.550Z,7.80
2023-04-09T14:32:24.781Z,8.80
2023-04-09T14:34:52.890Z,8.70
2023-04-09T14:37:20.975Z,7.90
2023-04-09T14:39:49.032Z,7.10
2023-04-09T14:42:17.194Z,9.40
2023-04-09T14:44:45.556Z,9.40
2023-04-09T14:47:13.630Z,7.10
2023-04-09T14:49:41.816Z,9.10
2023-04-09T14:52:09.970Z,8.70
2023-04-09T14:54:38.061Z,9.60
2023-04-09T14:57:07.055Z,11.50
2023-04-09T14:59:36.383Z,11.80
2023-04-09T15:02:04.847Z,10.40
2023-04-09T15:04:33.363Z,9.60
2023-04-09T15:07:01.732Z,8.90
2023-04-09T15:09:29.844Z,8.10
2023-04-09T15:11:58.024Z,7.10
2023-04-09T15:14:29.556Z,10.10
2023-04-09T15:16:57.747Z,9.30
2023-04-09T15:19:26.034Z,8.00
2023-04-09T15:21:54.219Z,7.90
2023-04-09T15:24:22.317Z,8.00
2023-04-09T15:26:50.628Z,10.30
2023-04-09T15:29:18.942Z,7.10
2023-04-09T15:31:47.154Z,6.10
2023-04-09T15:34:15.643Z,6.60
2023-04-09T15:36:45.543Z,8.50
2023-04-09T15:39:13.770Z,7.40
2023-04-09T15:41:41.888Z,6.60
2023-04-09T15:44:09.985Z,7.20
2023-04-09T15:46:38.311Z,7.90
2023-04-09T15:49:06.497Z,8.20
2023-04-09T15:51:34.662Z,6.90
2023-04-09T15:54:03.086Z,5.00
2023-04-09T15:56:31.282Z,7.40
2023-04-09T15:59:02.210Z,7.80
2023-04-09T16:01:31.014Z,8.80
2023-04-09T16:03:59.401Z,8.90
2023-04-09T16:06:27.750Z,10.00
2023-04-09T16:08:57.045Z,8.80
2023-04-09T16:11:25.246Z,9.60
2023-04-09T16:13:53.428Z,8.70
2023-04-09T16:16:21.887Z,13.80
2023-04-09T16:18:50.044Z,8.90
2023-04-09T16:21:18.216Z,8.50
2023-04-09T16:23:46.802Z,7.80
2023-04-09T16:26:14.953Z,8.00
2023-04-09T16:28:43.102Z,9.20
2023-04-09T16:31:11.250Z,8.40
2023-04-09T16:33:39.513Z,11.30
2023-04-09T16:36:07.766Z,11.50
2023-04-09T16:38:36.543Z,6.80
2023-04-09T16:41:04.939Z,6.30
2023-04-09T16:43:33.173Z,8.70
2023-04-09T16:46:01.909Z,7.30
2023-04-09T16:48:30.137Z,8.20
2023-04-09T16:50:58.220Z,13.90
2023-04-09T16:53:26.778Z,12.00
2023-04-09T16:55:54.845Z,10.00
2023-04-09T16:58:23.007Z,9.00
2023-04-09T17:00:52.085Z,9.00
2023-04-09T17:03:20.619Z,8.90
2023-04-09T17:05:49.460Z,9.60
2023-04-09T17:08:18.325Z,11.80
2023-04-09T17:10:46.512Z,8.60
2023-04-09T17:13:14.639Z,7.20
2023-04-09T17:15:42.900Z,9.30
2023-04-09T17:18:11.125Z,10.70
2023-04-09T17:20:39.538Z,11.20
2023-04-09T17:23:09.365Z,12.60
2023-04-09T17:25:38.236Z,12.00
2023-04-09T17:28:07.429Z,14.80
2023-04-09T17:30:35.605Z,14.60
2023-04-09T17:33:04.829Z,12.30
2023-04-09T17:35:33.300Z,11.70
2023-04-09T17:38:01.987Z,12.40
2023-04-09T17:40:30.208Z,9.30
2023-04-09T17:42:58.371Z,9.00
2023-04-09T17:45:26.792Z,8.50
2023-04-09T17:47:55.562Z,11.60
2023-04-09T17:50:23.772Z,8.70
2023-04-09T17:52:51.853Z,11.10
2023-04-09T17:55:20.007Z,11.30
2023-04-09T17:57:48.240Z,11.00
2023-04-09T18:00:16.813Z,13.00
2023-04-09T18:02:48.130Z,12.10
2023-04-09T18:05:16.565Z,9.40
2023-04-09T18:07:44.775Z,8.50
2023-04-09T18:10:13.525Z,9.90
2023-04-09T18:12:41.757Z,9.00
2023-04-09T18:15:10.311Z,11.40
2023-04-09T18:17:38.546Z,9.20
2023-04-09T18:20:07.726Z,9.40
2023-04-09T18:22:35.837Z,10.00
2023-04-09T18:25:04.558Z,10.10
2023-04-09T18:27:32.658Z,10.40
2023-04-09T18:30:00.823Z,24.60
2023-04-09T18:32:29.561Z,11.90
2023-04-09T18:34:57.730Z,9.90
2023-04-09T18:37:26.834Z,13.50
2023-04-09T18:39:55.026Z,15.50
2023-04-09T18:42:23.191Z,12.30
2023-04-09T18:44:51.564Z,11.10
2023-04-09T18:47:19.893Z,11.40
2023-04-09T18:49:48.040Z,11.00
2023-04-09T18:52:16.429Z,10.40
2023-04-09T18:54:44.577Z,14.50
2023-04-09T18:57:12.717Z,11.80
2023-04-09T18:59:41.576Z,10.40
2023-04-09T19:02:09.792Z,12.40
2023-04-09T19:04:40.150Z,11.00
2023-04-09T19:07:08.696Z,11.50
2023-04-09T19:09:37.606Z,11.00
2023-04-09T19:12:06.140Z,9.80
2023-04-09T19:14:34.257Z,10.80
2023-04-09T19:17:02.840Z,12.90
2023-04-09T19:19:31.079Z,10.30
2023-04-09T19:21:59.557Z,11.80
2023-04-09T19:24:28.106Z,11.80
2023-04-09T19:26:56.743Z,9.90
2023-04-09T19:29:24.980Z,10.00
2023-04-09T19:31:53.146Z,13.50
2023-04-09T19:34:21.322Z,12.70
2023-04-09T19:36:49.386Z,11.20
2023-04-09T19:39:17.601Z,11.30
2023-04-09T19:41:45.772Z,12.80
2023-04-09T19:44:13.831Z,12.80
2023-04-09T19:46:42.135Z,11.30
2023-04-09T19:49:10.379Z,15.00
2023-04-09T19:51:38.586Z,9.90
2023-04-09T19:54:06.659Z,11.00
2023-04-09T19:56:34.852Z,10.50
2023-04-09T19:59:03.068Z,13.60
2023-04-09T20:01:31.437Z,10.40
2023-04-09T20:03:59.782Z,11.50
2023-04-09T20:06:29.040Z,10.40
2023-04-09T20:08:57.177Z,11.30
2023-04-09T20:11:25.594Z,10.60
2023-04-09T20:13:53.731Z,12.00
2023-04-09T20:16:22.016Z,11.40
2023-04-09T20:18:50.518Z,11.10
2023-04-09T20:21:18.902Z,9.80
2023-04-09T20:23:47.302Z,9.90
2023-04-09T20:26:15.394Z,13.00
2023-04-09T20:28:43.512Z,13.20
2023-04-09T20:31:11.750Z,11.40
2023-04-09T20:33:39.928Z,12.10
2023-04-09T20:36:19.603Z,10.30
2023-04-09T20:38:48.503Z,8.90
2023-04-09T20:41:16.893Z,9.10
2023-04-09T20:43:45.083Z,11.00
2023-04-09T20:46:13.965Z,12.90
2023-04-09T20:48:44.045Z,11.70
2023-04-09T20:51:12.467Z,11.00
2023-04-09T20:53:40.682Z,9.10
2023-04-09T20:56:09.458Z,10.60
2023-04-09T20:58:37.607Z,12.10
2023-04-09T21:01:07.472Z,12.60
2023-04-09T21:03:37.420Z,11.00
2023-04-09T21:06:06.962Z,12.10
2023-04-09T21:08:35.078Z,10.60
2023-04-09T21:11:03.336Z,9.90
2023-04-09T21:13:40.494Z,11.80
2023-04-09T21:16:19.408Z,14.10
2023-04-09T21:18:47.641Z,12.80
2023-04-09T21:21:16.159Z,14.00
2023-04-09T21:23:44.395Z,10.70
2023-04-09T21:26:13.332Z,14.40
2023-04-09T21:28:41.535Z,14.60
2023-04-09T21:31:11.316Z,16.50
2023-04-09T21:33:39.580Z,15.60
2023-04-09T21:36:08.376Z,14.60
2023-04-09T21:38:36.741Z,15.60
2023-04-09T21:41:05.165Z,11.80
2023-04-09T21:43:33.442Z,13.70
2023-04-09T21:46:03.188Z,12.00
2023-04-09T21:48:31.585Z,15.10
2023-04-09T21:50:59.997Z,14.70
2023-04-09T21:53:28.352Z,14.40
2023-04-09T21:55:56.555Z,15.80
2023-04-09T21:58:24.637Z,13.50
2023-04-09T22:00:53.218Z,18.50
2023-04-09T22:03:22.589Z,18.70
2023-04-09T22:05:50.963Z,17.50
2023-04-09T22:08:19.098Z,15.50
2023-04-09T22:10:47.591Z,14.90
2023-04-09T22:13:15.814Z,16.10
2023-04-09T22:15:44.096Z,16.30
2023-04-09T22:18:12.456Z,16.00
2023-04-09T22:20:40.589Z,15.00
2023-04-09T22:23:09.807Z,15.10
2023-04-09T22:25:37.948Z,13.10
2023-04-09T22:28:06.355Z,15.40
2023-04-09T22:30:34.423Z,15.60
2023-04-09T22:33:02.801Z,15.40
2023-04-09T22:35:31.338Z,15.80
2023-04-09T22:37:59.706Z,19.00
2023-04-09T22:40:27.912Z,21.20
2023-04-09T22:42:56.519Z,20.50
2023-04-09T22:45:27.883Z,17.60
2023-04-09T22:47:57.207Z,22.50
2023-04-09T22:50:28.855Z,17.90
2023-04-09T22:52:57.244Z,20.10
2023-04-09T22:55:25.747Z,22.50
2023-04-09T22:57:55.135Z,17.40
2023-04-09T23:00:23.466Z,14.40
2023-04-09T23:02:51.930Z,15.70
2023-04-09T23:05:20.420Z,14.80
2023-04-09T23:07:48.683Z,17.80
2023-04-09T23:10:17.646Z,13.90
2023-04-09T23:12:46.242Z,17.70
2023-04-09T23:15:14.400Z,18.10
2023-04-09T23:17:42.826Z,16.00
2023-04-09T23:20:11.562Z,15.10
2023-04-09T23:22:39.720Z,15.20
2023-04-09T23:25:08.187Z,14.80
2023-04-09T23:27:36.254Z,14.70
2023-04-09T23:30:04.792Z,13.80
2023-04-09T23:32:32.932Z,12.90
2023-04-09T23:35:01.564Z,14.70
2023-04-09T23:37:29.886Z,10.70
2023-04-09T23:39:58.079Z,10.30
2023-04-09T23:42:32.671Z,12.70
2023-04-09T23:45:04.857Z,12.00
2023-04-09T23:47:35.154Z,10.40
2023-04-09T23:50:08.147Z,12.50
2023-04-09T23:52:38.243Z,11.50
2023-04-09T23:55:10.868Z,11.40
2023-04-09T23:57:42.794Z,11.40
